PWSweather.com
Personal Weather Stations
Station Observations
COONRAPIDS
Minneapolis, MN 55433

Minneapolis, MN 55433

Lat: 45.187721, Lon: -93.36828

Elevation: 898

Station Type: Davis Vantage Pro 2

High Low Average
Temperature 24.8°F-4.0°C 8.4°F-13.1°C 17.2°F-8.2°C
Dew Point 13.0°F-10.6°C 0.3°F-17.6°C 7.3°F-13.7°C
Winds 3.5 mph 5.6 kmh Calm Calm Calm ESECalm ESE
Wind Gusts 5.8 mph9.3 kmh -- 1.0 mph1.6 kmh
Humidity 72% 54% 65%
Pressure 30.56 in1034.9 mb 30.26 in1024.7 mb -
Precipitation 0.00 in0.0 mm - -
Hour Temp Dew Point Humidity Winds Wind Gusts Pressure Precip Precip Rate Daily Precip Total
12:00 AM 8.4°F-13.1°C 0.3°F-17.6°C 69% Calm Calm -- 30.56 in1034.9 mb - 0.00 in0.0 mm 0.00 in0.0 mm
12:10 AM 8.5°F-13.1°C 0.7°F-17.4°C 70% Calm Calm -- 30.56 in1034.9 mb - 0.00 in0.0 mm 0.00 in0.0 mm
12:20 AM 8.5°F-13.1°C 0.7°F-17.4°C 70% Calm Calm -- 30.56 in1034.9 mb - 0.00 in0.0 mm 0.00 in0.0 mm
12:30 AM 8.5°F-13.1°C 0.7°F-17.4°C 70% Calm Calm -- 30.56 in1034.9 mb - 0.00 in0.0 mm 0.00 in0.0 mm
12:40 AM 8.7°F-12.9°C 1.2°F-17.1°C 71% Calm Calm -- 30.56 in1034.9 mb - 0.00 in0.0 mm 0.00 in0.0 mm
12:50 AM 8.9°F-12.8°C 1.1°F-17.2°C 70% Calm Calm -- 30.56 in1034.9 mb - 0.00 in0.0 mm 0.00 in0.0 mm
01:00 AM 8.9°F-12.8°C 1.1°F-17.2°C 70% Calm Calm -- 30.54 in1034.2 mb - 0.00 in0.0 mm 0.00 in0.0 mm
01:10 AM 9.0°F-12.8°C 1.5°F-16.9°C 71% 1.2 mph NE1.9 kmh NE 2.3 mph3.7 kmh 30.53 in1033.9 mb - 0.00 in0.0 mm 0.00 in0.0 mm
01:20 AM 9.2°F-12.7°C 1.7°F-16.8°C 71% 1.2 mph NE1.9 kmh NE 3.5 mph5.6 kmh 30.53 in1033.9 mb - 0.00 in0.0 mm 0.00 in0.0 mm
01:30 AM 9.4°F-12.6°C 1.6°F-16.9°C 70% 2.3 mph ENE3.7 kmh ENE 4.6 mph7.4 kmh 30.52 in1033.5 mb - 0.00 in0.0 mm 0.00 in0.0 mm
01:40 AM 9.5°F-12.5°C 1.7°F-16.8°C 70% Calm Calm 2.3 mph3.7 kmh 30.52 in1033.5 mb - 0.00 in0.0 mm 0.00 in0.0 mm
01:50 AM 9.8°F-12.3°C 2.0°F-16.7°C 70% Calm Calm 3.5 mph5.6 kmh 30.52 in1033.5 mb - 0.00 in0.0 mm 0.00 in0.0 mm
02:00 AM 9.9°F-12.3°C 1.8°F-16.8°C 69% Calm Calm 3.5 mph5.6 kmh 30.52 in1033.5 mb - 0.00 in0.0 mm 0.00 in0.0 mm
02:10 AM 10.1°F-12.2°C 1.9°F-16.7°C 69% Calm Calm -- 30.52 in1033.5 mb - 0.00 in0.0 mm 0.00 in0.0 mm
02:20 AM 10.2°F-12.1°C 2.1°F-16.6°C 69% Calm Calm -- 30.53 in1033.9 mb - 0.00 in0.0 mm 0.00 in0.0 mm
02:30 AM 10.4°F-12.0°C 2.2°F-16.6°C 69% Calm Calm -- 30.54 in1034.2 mb - 0.00 in0.0 mm 0.00 in0.0 mm
02:40 AM 10.5°F-11.9°C 2.1°F-16.6°C 68% Calm Calm 2.3 mph3.7 kmh 30.53 in1033.9 mb - 0.00 in0.0 mm 0.00 in0.0 mm
02:50 AM 10.7°F-11.8°C 2.2°F-16.6°C 68% Calm Calm -- 30.53 in1033.9 mb - 0.00 in0.0 mm 0.00 in0.0 mm
03:00 AM 10.8°F-11.8°C 2.6°F-16.3°C 69% Calm Calm -- 30.53 in1033.9 mb - 0.00 in0.0 mm 0.00 in0.0 mm
03:10 AM 10.9°F-11.7°C 2.7°F-16.3°C 69% Calm Calm -- 30.54 in1034.2 mb - 0.00 in0.0 mm 0.00 in0.0 mm
03:20 AM 10.9°F-11.7°C 2.4°F-16.4°C 68% Calm Calm -- 30.54 in1034.2 mb - 0.00 in0.0 mm 0.00 in0.0 mm
03:30 AM 10.9°F-11.7°C 2.4°F-16.4°C 68% Calm Calm -- 30.55 in1034.5 mb - 0.00 in0.0 mm 0.00 in0.0 mm
03:40 AM 11.0°F-11.7°C 2.5°F-16.4°C 68% Calm Calm -- 30.55 in1034.5 mb - 0.00 in0.0 mm 0.00 in0.0 mm
03:50 AM 11.2°F-11.6°C 2.7°F-16.3°C 68% Calm Calm -- 30.55 in1034.5 mb - 0.00 in0.0 mm 0.00 in0.0 mm
04:00 AM 11.3°F-11.5°C 2.5°F-16.4°C 67% Calm Calm -- 30.55 in1034.5 mb - 0.00 in0.0 mm 0.00 in0.0 mm
04:10 AM 11.4°F-11.4°C 2.6°F-16.3°C 67% Calm Calm -- 30.54 in1034.2 mb - 0.00 in0.0 mm 0.00 in0.0 mm
04:20 AM 11.5°F-11.4°C 3.0°F-16.1°C 68% Calm Calm -- 30.54 in1034.2 mb - 0.00 in0.0 mm 0.00 in0.0 mm
04:30 AM 11.5°F-11.4°C 3.0°F-16.1°C 68% Calm Calm -- 30.52 in1033.5 mb - 0.00 in0.0 mm 0.00 in0.0 mm
04:40 AM 11.5°F-11.4°C 2.9°F-16.2°C 68% Calm Calm -- 30.52 in1033.5 mb - 0.00 in0.0 mm 0.00 in0.0 mm
04:50 AM 11.5°F-11.4°C 3.0°F-16.1°C 68% Calm Calm -- 30.52 in1033.5 mb - 0.00 in0.0 mm 0.00 in0.0 mm
05:00 AM 11.5°F-11.4°C 3.0°F-16.1°C 68% Calm Calm -- 30.52 in1033.5 mb - 0.00 in0.0 mm 0.00 in0.0 mm
05:10 AM 11.5°F-11.4°C 3.0°F-16.1°C 68% Calm Calm 1.2 mph1.9 kmh 30.52 in1033.5 mb - 0.00 in0.0 mm 0.00 in0.0 mm
05:20 AM 11.4°F-11.4°C 3.2°F-16.0°C 69% Calm Calm 1.2 mph1.9 kmh 30.52 in1033.5 mb - 0.00 in0.0 mm 0.00 in0.0 mm
05:30 AM 11.5°F-11.4°C 3.0°F-16.1°C 68% Calm Calm -- 30.51 in1033.2 mb - 0.00 in0.0 mm 0.00 in0.0 mm
05:40 AM 11.4°F-11.4°C 2.9°F-16.2°C 68% Calm Calm -- 30.52 in1033.5 mb - 0.00 in0.0 mm 0.00 in0.0 mm
05:50 AM 11.4°F-11.4°C 2.9°F-16.2°C 68% Calm Calm -- 30.51 in1033.2 mb - 0.00 in0.0 mm 0.00 in0.0 mm
06:00 AM 11.4°F-11.4°C 3.2°F-16.0°C 69% 1.2 mph NE1.9 kmh NE 3.5 mph5.6 kmh 30.51 in1033.2 mb - 0.00 in0.0 mm 0.00 in0.0 mm
06:10 AM 11.3°F-11.5°C 3.1°F-16.1°C 69% 1.2 mph NE1.9 kmh NE -- 30.51 in1033.2 mb - 0.00 in0.0 mm 0.00 in0.0 mm
06:20 AM 11.3°F-11.5°C 3.1°F-16.1°C 69% Calm Calm -- 30.51 in1033.2 mb - 0.00 in0.0 mm 0.00 in0.0 mm
06:30 AM 11.3°F-11.5°C 3.1°F-16.1°C 69% Calm Calm -- 30.51 in1033.2 mb - 0.00 in0.0 mm 0.00 in0.0 mm
06:40 AM 11.4°F-11.4°C 3.2°F-16.0°C 69% Calm Calm -- 30.51 in1033.2 mb - 0.00 in0.0 mm 0.00 in0.0 mm
06:50 AM 11.5°F-11.4°C 3.6°F-15.8°C 70% Calm Calm -- 30.51 in1033.2 mb - 0.00 in0.0 mm 0.00 in0.0 mm
07:00 AM 11.6°F-11.3°C 3.7°F-15.7°C 70% Calm Calm -- 30.51 in1033.2 mb - 0.00 in0.0 mm 0.00 in0.0 mm
07:10 AM 11.7°F-11.3°C 3.8°F-15.7°C 70% Calm Calm -- 30.51 in1033.2 mb - 0.00 in0.0 mm 0.00 in0.0 mm
07:20 AM 11.7°F-11.3°C 4.1°F-15.5°C 71% Calm Calm -- 30.50 in1032.8 mb - 0.00 in0.0 mm 0.00 in0.0 mm
07:30 AM 11.6°F-11.3°C 3.7°F-15.7°C 70% Calm Calm 1.2 mph1.9 kmh 30.50 in1032.8 mb - 0.00 in0.0 mm 0.00 in0.0 mm
07:40 AM 11.5°F-11.4°C 3.9°F-15.6°C 71% Calm Calm -- 30.49 in1032.5 mb - 0.00 in0.0 mm 0.00 in0.0 mm
07:50 AM 11.4°F-11.4°C 3.8°F-15.7°C 71% Calm Calm 1.2 mph1.9 kmh 30.49 in1032.5 mb - 0.00 in0.0 mm 0.00 in0.0 mm
08:00 AM 11.3°F-11.5°C 4.0°F-15.6°C 72% Calm Calm -- 30.49 in1032.5 mb - 0.00 in0.0 mm 0.00 in0.0 mm
08:10 AM 11.2°F-11.6°C 3.9°F-15.6°C 72% Calm Calm -- 30.50 in1032.8 mb - 0.00 in0.0 mm 0.00 in0.0 mm
08:20 AM 11.3°F-11.5°C 4.0°F-15.6°C 72% Calm Calm -- 30.50 in1032.8 mb - 0.00 in0.0 mm 0.00 in0.0 mm
08:30 AM 11.6°F-11.3°C 4.3°F-15.4°C 72% Calm Calm -- 30.51 in1033.2 mb - 0.00 in0.0 mm 0.00 in0.0 mm
08:40 AM 12.1°F-11.1°C 4.8°F-15.1°C 72% Calm Calm -- 30.51 in1033.2 mb - 0.00 in0.0 mm 0.00 in0.0 mm
08:50 AM 12.7°F-10.7°C 5.0°F-15.0°C 71% Calm Calm -- 30.51 in1033.2 mb - 0.00 in0.0 mm 0.00 in0.0 mm
09:00 AM 12.9°F-10.6°C 5.0°F-15.0°C 70% Calm Calm -- 30.51 in1033.2 mb - 0.00 in0.0 mm 0.00 in0.0 mm
09:10 AM 13.2°F-10.4°C 5.2°F-14.9°C 70% Calm Calm -- 30.51 in1033.2 mb - 0.00 in0.0 mm 0.00 in0.0 mm
09:20 AM 13.4°F-10.3°C 5.5°F-14.7°C 70% 1.2 mph E1.9 kmh E 3.5 mph5.6 kmh 30.50 in1032.8 mb - 0.00 in0.0 mm 0.00 in0.0 mm
09:30 AM 13.7°F-10.2°C 5.7°F-14.6°C 70% Calm Calm 2.3 mph3.7 kmh 30.50 in1032.8 mb - 0.00 in0.0 mm 0.00 in0.0 mm
09:40 AM 13.9°F-10.1°C 5.6°F-14.7°C 69% Calm Calm 3.5 mph5.6 kmh 30.51 in1033.2 mb - 0.00 in0.0 mm 0.00 in0.0 mm
09:50 AM 14.2°F-9.9°C 5.9°F-14.5°C 69% Calm Calm 2.3 mph3.7 kmh 30.51 in1033.2 mb - 0.00 in0.0 mm 0.00 in0.0 mm
10:00 AM 14.4°F-9.8°C 5.8°F-14.6°C 68% Calm Calm -- 30.51 in1033.2 mb - 0.00 in0.0 mm 0.00 in0.0 mm
10:10 AM 14.8°F-9.6°C 6.1°F-14.4°C 68% 1.2 mph E1.9 kmh E 2.3 mph3.7 kmh 30.50 in1032.8 mb - 0.00 in0.0 mm 0.00 in0.0 mm
10:20 AM 15.1°F-9.4°C 6.4°F-14.2°C 68% Calm Calm -- 30.49 in1032.5 mb - 0.00 in0.0 mm 0.00 in0.0 mm
10:30 AM 15.5°F-9.2°C 6.5°F-14.2°C 67% Calm Calm -- 30.50 in1032.8 mb - 0.00 in0.0 mm 0.00 in0.0 mm
10:40 AM 15.8°F-9.0°C 6.4°F-14.2°C 66% Calm Calm -- 30.50 in1032.8 mb - 0.00 in0.0 mm 0.00 in0.0 mm
10:50 AM 16.1°F-8.8°C 6.4°F-14.2°C 65% Calm Calm 2.3 mph3.7 kmh 30.49 in1032.5 mb - 0.00 in0.0 mm 0.00 in0.0 mm
11:00 AM 16.6°F-8.6°C 6.9°F-13.9°C 65% Calm Calm 2.3 mph3.7 kmh 30.48 in1032.2 mb - 0.00 in0.0 mm 0.00 in0.0 mm
11:10 AM 17.0°F-8.3°C 6.6°F-14.1°C 63% Calm Calm -- 30.47 in1031.8 mb - 0.00 in0.0 mm 0.00 in0.0 mm
11:20 AM 17.5°F-8.1°C 7.0°F-13.9°C 63% Calm Calm 2.3 mph3.7 kmh 30.46 in1031.5 mb - 0.00 in0.0 mm 0.00 in0.0 mm
11:30 AM 18.1°F-7.7°C 6.9°F-13.9°C 61% 1.2 mph E1.9 kmh E 3.5 mph5.6 kmh 30.46 in1031.5 mb - 0.00 in0.0 mm 0.00 in0.0 mm
11:40 AM 18.8°F-7.3°C 7.6°F-13.6°C 61% 2.3 mph SE3.7 kmh SE 3.5 mph5.6 kmh 30.45 in1031.2 mb - 0.00 in0.0 mm 0.00 in0.0 mm
11:50 AM 19.1°F-7.2°C 7.4°F-13.7°C 60% Calm Calm 2.3 mph3.7 kmh 30.43 in1030.5 mb - 0.00 in0.0 mm 0.00 in0.0 mm
12:00 PM 19.2°F-7.1°C 7.6°F-13.6°C 60% Calm Calm 3.5 mph5.6 kmh 30.43 in1030.5 mb - 0.00 in0.0 mm 0.00 in0.0 mm
12:10 PM 19.8°F-6.8°C 8.1°F-13.3°C 60% Calm Calm 3.5 mph5.6 kmh 30.42 in1030.1 mb - 0.00 in0.0 mm 0.00 in0.0 mm
12:20 PM 20.2°F-6.6°C 7.7°F-13.5°C 58% Calm Calm 2.3 mph3.7 kmh 30.42 in1030.1 mb - 0.00 in0.0 mm 0.00 in0.0 mm
12:30 PM 20.5°F-6.4°C 8.0°F-13.3°C 58% 1.2 mph ESE1.9 kmh ESE 5.8 mph9.3 kmh 30.41 in1029.8 mb - 0.00 in0.0 mm 0.00 in0.0 mm
12:40 PM 20.9°F-6.2°C 8.8°F-12.9°C 59% 2.3 mph E3.7 kmh E 4.6 mph7.4 kmh 30.41 in1029.8 mb - 0.00 in0.0 mm 0.00 in0.0 mm
12:50 PM 21.2°F-6.0°C 8.7°F-12.9°C 58% Calm Calm -- 30.40 in1029.5 mb - 0.00 in0.0 mm 0.00 in0.0 mm
01:00 PM 21.3°F-5.9°C 8.8°F-12.9°C 58% 1.2 mph E1.9 kmh E 4.6 mph7.4 kmh 30.40 in1029.5 mb - 0.00 in0.0 mm 0.00 in0.0 mm
01:10 PM 21.7°F-5.7°C 8.8°F-12.9°C 57% 1.2 mph E1.9 kmh E 3.5 mph5.6 kmh 30.39 in1029.1 mb - 0.00 in0.0 mm 0.00 in0.0 mm
01:20 PM 21.8°F-5.7°C 8.9°F-12.8°C 57% 2.3 mph SE3.7 kmh SE 3.5 mph5.6 kmh 30.38 in1028.8 mb - 0.00 in0.0 mm 0.00 in0.0 mm
01:30 PM 22.2°F-5.4°C 9.2°F-12.7°C 57% 1.2 mph ESE1.9 kmh ESE 2.3 mph3.7 kmh 30.37 in1028.4 mb - 0.00 in0.0 mm 0.00 in0.0 mm
01:40 PM 22.4°F-5.3°C 9.0°F-12.8°C 56% Calm Calm 4.6 mph7.4 kmh 30.37 in1028.4 mb - 0.00 in0.0 mm 0.00 in0.0 mm
01:50 PM 23.0°F-5.0°C 10.0°F-12.2°C 57% 1.2 mph E1.9 kmh E 1.2 mph1.9 kmh 30.37 in1028.4 mb - 0.00 in0.0 mm 0.00 in0.0 mm
02:00 PM 23.4°F-4.8°C 9.6°F-12.4°C 55% 1.2 mph ESE1.9 kmh ESE 3.5 mph5.6 kmh 30.37 in1028.4 mb - 0.00 in0.0 mm 0.00 in0.0 mm
02:10 PM 23.5°F-4.7°C 9.6°F-12.4°C 55% Calm Calm 2.3 mph3.7 kmh 30.36 in1028.1 mb - 0.00 in0.0 mm 0.00 in0.0 mm
02:20 PM 23.5°F-4.7°C 9.7°F-12.4°C 55% Calm Calm 1.2 mph1.9 kmh 30.36 in1028.1 mb - 0.00 in0.0 mm 0.00 in0.0 mm
02:30 PM 23.5°F-4.7°C 9.3°F-12.6°C 54% Calm Calm -- 30.36 in1028.1 mb - 0.00 in0.0 mm 0.00 in0.0 mm
02:40 PM 23.9°F-4.5°C 10.1°F-12.2°C 55% 3.5 mph ESE5.6 kmh ESE 3.5 mph5.6 kmh 30.35 in1027.8 mb - 0.00 in0.0 mm 0.00 in0.0 mm
02:50 PM 23.9°F-4.5°C 10.1°F-12.2°C 55% 1.2 mph SE1.9 kmh SE 3.5 mph5.6 kmh 30.35 in1027.8 mb - 0.00 in0.0 mm 0.00 in0.0 mm
03:00 PM 24.4°F-4.2°C 10.5°F-11.9°C 55% Calm Calm 2.3 mph3.7 kmh 30.34 in1027.4 mb - 0.00 in0.0 mm 0.00 in0.0 mm
03:10 PM 24.8°F-4.0°C 10.5°F-11.9°C 54% Calm Calm 2.3 mph3.7 kmh 30.34 in1027.4 mb - 0.00 in0.0 mm 0.00 in0.0 mm
03:20 PM 24.6°F-4.1°C 10.7°F-11.8°C 55% Calm Calm -- 30.34 in1027.4 mb - 0.00 in0.0 mm 0.00 in0.0 mm
03:30 PM 24.6°F-4.1°C 10.3°F-12.1°C 54% 2.3 mph SE3.7 kmh SE 3.5 mph5.6 kmh 30.34 in1027.4 mb - 0.00 in0.0 mm 0.00 in0.0 mm
03:40 PM 24.5°F-4.2°C 10.6°F-11.9°C 55% Calm Calm -- 30.34 in1027.4 mb - 0.00 in0.0 mm 0.00 in0.0 mm
03:50 PM 24.6°F-4.1°C 10.7°F-11.8°C 55% 1.2 mph SSE1.9 kmh SSE 3.5 mph5.6 kmh 30.33 in1027.1 mb - 0.00 in0.0 mm 0.00 in0.0 mm
04:00 PM 24.5°F-4.2°C 10.7°F-11.8°C 55% 1.2 mph ESE1.9 kmh ESE 4.6 mph7.4 kmh 30.33 in1027.1 mb - 0.00 in0.0 mm 0.00 in0.0 mm
04:10 PM 24.4°F-4.2°C 10.5°F-11.9°C 55% 1.2 mph E1.9 kmh E 3.5 mph5.6 kmh 30.33 in1027.1 mb - 0.00 in0.0 mm 0.00 in0.0 mm
04:20 PM 24.3°F-4.3°C 10.8°F-11.8°C 56% Calm Calm -- 30.32 in1026.8 mb - 0.00 in0.0 mm 0.00 in0.0 mm
04:30 PM 24.2°F-4.3°C 10.7°F-11.8°C 56% 2.3 mph ESE3.7 kmh ESE 3.5 mph5.6 kmh 30.32 in1026.8 mb - 0.00 in0.0 mm 0.00 in0.0 mm
04:40 PM 24.0°F-4.4°C 11.0°F-11.7°C 57% Calm Calm 1.2 mph1.9 kmh 30.32 in1026.8 mb - 0.00 in0.0 mm 0.00 in0.0 mm
04:50 PM 23.8°F-4.6°C 11.2°F-11.6°C 58% 1.2 mph SE1.9 kmh SE 4.6 mph7.4 kmh 30.32 in1026.8 mb - 0.00 in0.0 mm 0.00 in0.0 mm
05:00 PM 23.7°F-4.6°C 11.1°F-11.6°C 58% Calm Calm 3.5 mph5.6 kmh 30.32 in1026.8 mb - 0.00 in0.0 mm 0.00 in0.0 mm
05:10 PM 23.6°F-4.7°C 11.0°F-11.7°C 58% Calm Calm 2.3 mph3.7 kmh 30.32 in1026.8 mb - 0.00 in0.0 mm 0.00 in0.0 mm
05:20 PM 23.6°F-4.7°C 11.0°F-11.7°C 58% 2.3 mph SE3.7 kmh SE 3.5 mph5.6 kmh 30.32 in1026.8 mb - 0.00 in0.0 mm 0.00 in0.0 mm
05:30 PM 23.5°F-4.7°C 11.3°F-11.5°C 59% Calm Calm 1.2 mph1.9 kmh 30.32 in1026.8 mb - 0.00 in0.0 mm 0.00 in0.0 mm
05:40 PM 23.4°F-4.8°C 11.5°F-11.4°C 60% Calm Calm -- 30.32 in1026.8 mb - 0.00 in0.0 mm 0.00 in0.0 mm
05:50 PM 23.3°F-4.8°C 11.4°F-11.4°C 60% Calm Calm -- 30.31 in1026.4 mb - 0.00 in0.0 mm 0.00 in0.0 mm
06:00 PM 23.1°F-4.9°C 11.3°F-11.5°C 60% Calm Calm -- 30.31 in1026.4 mb - 0.00 in0.0 mm 0.00 in0.0 mm
06:10 PM 23.1°F-4.9°C 11.3°F-11.5°C 60% 1.2 mph ESE1.9 kmh ESE 2.3 mph3.7 kmh 30.31 in1026.4 mb - 0.00 in0.0 mm 0.00 in0.0 mm
06:20 PM 23.0°F-5.0°C 11.2°F-11.6°C 60% 1.2 mph ESE1.9 kmh ESE 3.5 mph5.6 kmh 30.30 in1026.1 mb - 0.00 in0.0 mm 0.00 in0.0 mm
06:30 PM 22.9°F-5.1°C 11.1°F-11.6°C 60% 3.5 mph ESE5.6 kmh ESE 4.6 mph7.4 kmh 30.30 in1026.1 mb - 0.00 in0.0 mm 0.00 in0.0 mm
06:40 PM 22.7°F-5.2°C 10.9°F-11.7°C 60% 3.5 mph SE5.6 kmh SE 4.6 mph7.4 kmh 30.30 in1026.1 mb - 0.00 in0.0 mm 0.00 in0.0 mm
06:50 PM 22.6°F-5.2°C 11.2°F-11.6°C 61% 1.2 mph ESE1.9 kmh ESE 3.5 mph5.6 kmh 30.30 in1026.1 mb - 0.00 in0.0 mm 0.00 in0.0 mm
07:00 PM 22.5°F-5.3°C 11.1°F-11.6°C 61% Calm Calm 1.2 mph1.9 kmh 30.29 in1025.7 mb - 0.00 in0.0 mm 0.00 in0.0 mm
07:10 PM 22.4°F-5.3°C 11.3°F-11.5°C 62% 1.2 mph SE1.9 kmh SE 3.5 mph5.6 kmh 30.29 in1025.7 mb - 0.00 in0.0 mm 0.00 in0.0 mm
07:20 PM 22.4°F-5.3°C 11.3°F-11.5°C 62% 1.2 mph ESE1.9 kmh ESE -- 30.29 in1025.7 mb - 0.00 in0.0 mm 0.00 in0.0 mm
07:30 PM 22.2°F-5.4°C 11.5°F-11.4°C 63% 1.2 mph SE1.9 kmh SE 2.3 mph3.7 kmh 30.29 in1025.7 mb - 0.00 in0.0 mm 0.00 in0.0 mm
07:40 PM 22.1°F-5.5°C 11.4°F-11.4°C 63% Calm Calm -- 30.29 in1025.7 mb - 0.00 in0.0 mm 0.00 in0.0 mm
07:50 PM 22.1°F-5.5°C 11.4°F-11.4°C 63% Calm Calm -- 30.29 in1025.7 mb - 0.00 in0.0 mm 0.00 in0.0 mm
08:00 PM 22.1°F-5.5°C 11.8°F-11.2°C 64% Calm Calm -- 30.29 in1025.7 mb - 0.00 in0.0 mm 0.00 in0.0 mm
08:10 PM 22.0°F-5.6°C 11.7°F-11.3°C 64% Calm Calm 1.2 mph1.9 kmh 30.29 in1025.7 mb - 0.00 in0.0 mm 0.00 in0.0 mm
08:20 PM 21.9°F-5.6°C 11.5°F-11.4°C 64% Calm Calm -- 30.28 in1025.4 mb - 0.00 in0.0 mm 0.00 in0.0 mm
08:30 PM 21.8°F-5.7°C 11.9°F-11.2°C 65% Calm Calm 1.2 mph1.9 kmh 30.28 in1025.4 mb - 0.00 in0.0 mm 0.00 in0.0 mm
08:40 PM 21.7°F-5.7°C 11.8°F-11.2°C 65% Calm Calm 1.2 mph1.9 kmh 30.28 in1025.4 mb - 0.00 in0.0 mm 0.00 in0.0 mm
08:50 PM 21.7°F-5.7°C 11.7°F-11.3°C 65% Calm Calm -- 30.29 in1025.7 mb - 0.00 in0.0 mm 0.00 in0.0 mm
09:00 PM 21.7°F-5.7°C 12.1°F-11.1°C 66% Calm Calm -- 30.29 in1025.7 mb - 0.00 in0.0 mm 0.00 in0.0 mm
09:10 PM 21.6°F-5.8°C 12.0°F-11.1°C 66% Calm Calm -- 30.28 in1025.4 mb - 0.00 in0.0 mm 0.00 in0.0 mm
09:20 PM 21.6°F-5.8°C 12.0°F-11.1°C 66% Calm Calm -- 30.28 in1025.4 mb - 0.00 in0.0 mm 0.00 in0.0 mm
09:30 PM 21.5°F-5.8°C 11.9°F-11.2°C 66% Calm Calm -- 30.28 in1025.4 mb - 0.00 in0.0 mm 0.00 in0.0 mm
09:40 PM 21.2°F-6.0°C 12.0°F-11.1°C 67% Calm Calm -- 30.28 in1025.4 mb - 0.00 in0.0 mm 0.00 in0.0 mm
09:50 PM 21.1°F-6.1°C 12.2°F-11.0°C 68% Calm Calm -- 30.28 in1025.4 mb - 0.00 in0.0 mm 0.00 in0.0 mm
10:00 PM 20.9°F-6.2°C 12.3°F-10.9°C 69% Calm Calm -- 30.28 in1025.4 mb - 0.00 in0.0 mm 0.00 in0.0 mm
10:10 PM 20.9°F-6.2°C 12.3°F-10.9°C 69% Calm Calm -- 30.28 in1025.4 mb - 0.00 in0.0 mm 0.00 in0.0 mm
10:20 PM 21.1°F-6.1°C 12.5°F-10.8°C 69% Calm Calm -- 30.28 in1025.4 mb - 0.00 in0.0 mm 0.00 in0.0 mm
10:30 PM 21.3°F-5.9°C 12.7°F-10.7°C 69% Calm Calm -- 30.27 in1025.1 mb - 0.00 in0.0 mm 0.00 in0.0 mm
10:40 PM 21.3°F-5.9°C 12.7°F-10.7°C 69% Calm Calm 1.2 mph1.9 kmh 30.27 in1025.1 mb - 0.00 in0.0 mm 0.00 in0.0 mm
10:50 PM 21.3°F-5.9°C 12.7°F-10.7°C 69% 1.2 mph SE1.9 kmh SE 3.5 mph5.6 kmh 30.27 in1025.1 mb - 0.00 in0.0 mm 0.00 in0.0 mm
11:00 PM 21.3°F-5.9°C 12.7°F-10.7°C 69% Calm Calm -- 30.26 in1024.7 mb - 0.00 in0.0 mm 0.00 in0.0 mm
11:10 PM 21.4°F-5.9°C 12.8°F-10.7°C 69% 1.2 mph SE1.9 kmh SE 1.2 mph1.9 kmh 30.26 in1024.7 mb - 0.00 in0.0 mm 0.00 in0.0 mm
11:20 PM 21.4°F-5.9°C 12.8°F-10.7°C 69% Calm Calm -- 30.26 in1024.7 mb - 0.00 in0.0 mm 0.00 in0.0 mm
11:30 PM 21.3°F-5.9°C 12.7°F-10.7°C 69% Calm Calm 1.2 mph1.9 kmh 30.26 in1024.7 mb - 0.00 in0.0 mm 0.00 in0.0 mm
11:40 PM 21.3°F-5.9°C 13.0°F-10.6°C 70% Calm Calm 1.2 mph1.9 kmh 30.26 in1024.7 mb - 0.00 in0.0 mm 0.00 in0.0 mm
11:50 PM 21.3°F-5.9°C 13.0°F-10.6°C 70% Calm Calm -- 30.26 in1024.7 mb - 0.00 in0.0 mm 0.00 in0.0 mm